createdAt,value
2022-09-18T00:00:22.384Z,12.50
2022-09-18T00:02:25.475Z,12.46
2022-09-18T00:04:28.437Z,12.45
2022-09-18T00:06:33.283Z,12.44
2022-09-18T00:08:38.511Z,12.45
2022-09-18T00:10:42.241Z,12.46
2022-09-18T00:12:45.249Z,12.46
2022-09-18T00:14:48.292Z,12.45
2022-09-18T00:16:52.801Z,12.44
2022-09-18T00:18:55.819Z,12.44
2022-09-18T00:21:04.923Z,12.41
2022-09-18T00:23:07.943Z,12.34
2022-09-18T00:25:10.956Z,12.34
2022-09-18T00:27:14.088Z,12.34
2022-09-18T00:29:18.114Z,12.35
2022-09-18T00:31:25.551Z,12.37
2022-09-18T00:33:29.940Z,12.36
2022-09-18T00:35:32.871Z,12.36
2022-09-18T00:37:35.885Z,12.37
2022-09-18T00:39:38.976Z,12.38
2022-09-18T00:41:43.852Z,12.40
2022-09-18T00:43:47.197Z,12.39
2022-09-18T00:45:54.641Z,12.38
2022-09-18T00:47:58.240Z,12.36
2022-09-18T00:50:08.264Z,12.36
2022-09-18T00:52:12.158Z,12.39
2022-09-18T00:54:19.372Z,12.34
2022-09-18T00:56:22.422Z,12.32
2022-09-18T00:58:25.463Z,12.32
2022-09-18T01:00:31.039Z,12.32
2022-09-18T01:02:34.880Z,12.31
2022-09-18T01:04:38.437Z,12.30
2022-09-18T01:06:47.723Z,12.28
2022-09-18T01:09:27.758Z,12.28
2022-09-18T01:11:37.704Z,12.27
2022-09-18T01:13:46.963Z,12.25
2022-09-18T01:15:53.521Z,12.23
2022-09-18T01:18:03.985Z,12.24
2022-09-18T01:20:21.975Z,12.23
2022-09-18T01:22:34.364Z,12.22
2022-09-18T01:24:47.274Z,12.23
2022-09-18T01:26:55.589Z,12.23
2022-09-18T01:29:02.127Z,12.23
2022-09-18T01:31:07.976Z,12.20
2022-09-18T01:33:16.558Z,12.20
2022-09-18T01:35:40.401Z,12.16
2022-09-18T01:37:47.444Z,12.13
2022-09-18T01:39:55.127Z,12.14
2022-09-18T01:42:00.370Z,12.13
2022-09-18T01:44:10.152Z,12.11
2022-09-18T01:46:16.622Z,12.08
2022-09-18T01:48:24.622Z,12.07
2022-09-18T01:50:29.601Z,12.05
2022-09-18T01:52:38.064Z,12.03
2022-09-18T01:54:43.637Z,12.06
2022-09-18T01:56:49.076Z,12.08
2022-09-18T01:58:54.940Z,12.06
2022-09-18T02:01:06.134Z,12.09
2022-09-18T02:03:13.055Z,12.12
2022-09-18T02:05:22.381Z,12.12
2022-09-18T02:07:31.922Z,12.11
2022-09-18T02:09:36.465Z,12.11
2022-09-18T02:11:42.474Z,12.09
2022-09-18T02:13:49.640Z,12.08
2022-09-18T02:15:58.788Z,12.09
2022-09-18T02:18:07.040Z,12.12
2022-09-18T02:20:19.589Z,12.12
2022-09-18T02:22:24.410Z,12.11
2022-09-18T02:24:36.432Z,12.10
2022-09-18T02:26:41.110Z,12.11
2022-09-18T02:28:45.849Z,12.10
2022-09-18T02:30:49.475Z,12.11
2022-09-18T02:32:55.130Z,12.12
2022-09-18T02:35:01.038Z,12.12
2022-09-18T02:37:18.348Z,12.11
2022-09-18T02:39:32.097Z,12.12
2022-09-18T02:41:40.229Z,12.12
2022-09-18T02:43:55.397Z,12.08
2022-09-18T02:46:06.837Z,12.08
2022-09-18T02:48:22.698Z,12.10
2022-09-18T02:50:32.952Z,12.11
2022-09-18T02:52:43.305Z,12.08
2022-09-18T02:54:49.140Z,12.07
2022-09-18T02:56:55.010Z,12.10
2022-09-18T02:59:03.327Z,12.10
2022-09-18T03:01:07.834Z,12.11
2022-09-18T03:03:14.524Z,12.09
2022-09-18T03:05:23.500Z,12.10
2022-09-18T03:07:32.402Z,12.09
2022-09-18T03:09:35.691Z,12.05
2022-09-18T03:11:39.690Z,12.05
2022-09-18T03:13:42.788Z,12.02
2022-09-18T03:15:45.842Z,11.99
2022-09-18T03:17:48.936Z,11.98
2022-09-18T03:19:51.974Z,11.98
2022-09-18T03:21:54.974Z,11.99
2022-09-18T03:24:01.004Z,12.00
2022-09-18T03:26:06.547Z,12.00
2022-09-18T03:28:10.100Z,11.99
2022-09-18T03:30:16.347Z,12.00
2022-09-18T03:32:19.345Z,12.00
2022-09-18T03:34:25.296Z,12.02
2022-09-18T03:36:28.288Z,11.99
2022-09-18T03:38:33.213Z,11.99
2022-09-18T03:40:37.812Z,12.01
2022-09-18T03:42:44.250Z,12.01
2022-09-18T03:44:47.270Z,11.97
2022-09-18T03:46:57.870Z,11.98
2022-09-18T03:49:00.967Z,12.01
2022-09-18T03:51:07.091Z,12.01
2022-09-18T03:53:10.109Z,12.04
2022-09-18T03:55:37.875Z,12.00
2022-09-18T03:58:00.862Z,12.03
2022-09-18T04:00:22.476Z,12.06
2022-09-18T04:02:31.295Z,12.05
2022-09-18T04:04:53.815Z,11.98
2022-09-18T04:07:16.001Z,11.96
2022-09-18T04:09:19.117Z,11.96
2022-09-18T04:11:27.743Z,11.89
2022-09-18T04:13:31.026Z,11.91
2022-09-18T04:15:39.499Z,11.93
2022-09-18T04:17:42.866Z,11.93
2022-09-18T04:19:49.043Z,11.94
2022-09-18T04:21:54.397Z,11.95
2022-09-18T04:23:59.535Z,11.95
2022-09-18T04:26:08.807Z,11.85
2022-09-18T04:28:17.210Z,11.80
2022-09-18T04:30:24.879Z,11.83
2022-09-18T04:32:27.996Z,11.84
2022-09-18T04:34:30.976Z,11.87
2022-09-18T04:36:34.011Z,11.87
2022-09-18T04:38:38.145Z,11.89
2022-09-18T04:40:41.233Z,11.84
2022-09-18T04:42:44.696Z,11.86
2022-09-18T04:44:49.123Z,11.89
2022-09-18T04:46:52.355Z,11.91
2022-09-18T04:48:55.473Z,11.91
2022-09-18T04:51:01.523Z,11.82
2022-09-18T04:53:04.562Z,11.81
2022-09-18T04:55:09.780Z,11.82
2022-09-18T04:57:13.970Z,11.78
2022-09-18T04:59:21.999Z,11.79
2022-09-18T05:01:26.413Z,11.83
2022-09-18T05:03:29.710Z,11.84
2022-09-18T05:05:33.098Z,11.88
2022-09-18T05:07:36.181Z,11.89
2022-09-18T05:09:39.310Z,11.89
2022-09-18T05:11:43.797Z,11.87
2022-09-18T05:13:49.181Z,11.87
2022-09-18T05:15:55.580Z,11.88
2022-09-18T05:18:01.905Z,11.92
2022-09-18T05:20:06.367Z,11.94
2022-09-18T05:22:14.444Z,11.94
2022-09-18T05:24:22.803Z,11.94
2022-09-18T05:26:28.258Z,11.97
2022-09-18T05:28:32.388Z,11.94
2022-09-18T05:30:36.496Z,11.95
2022-09-18T05:32:39.483Z,11.96
2022-09-18T05:34:43.930Z,11.97
2022-09-18T05:36:47.172Z,12.00
2022-09-18T05:38:51.463Z,12.01
2022-09-18T05:40:54.530Z,12.00
2022-09-18T05:42:59.132Z,11.99
2022-09-18T05:45:02.315Z,12.00
2022-09-18T05:47:06.553Z,12.02
2022-09-18T05:49:09.907Z,12.04
2022-09-18T05:51:14.466Z,12.04
2022-09-18T05:53:19.194Z,12.01
2022-09-18T05:55:42.674Z,11.95
2022-09-18T05:57:45.784Z,11.94
2022-09-18T05:59:48.779Z,11.93
2022-09-18T06:01:51.878Z,11.96
2022-09-18T06:04:02.632Z,11.99
2022-09-18T06:06:15.296Z,11.98
2022-09-18T06:08:18.557Z,11.92
2022-09-18T06:10:22.986Z,11.93
2022-09-18T06:12:26.050Z,11.92
2022-09-18T06:14:29.027Z,11.92
2022-09-18T06:16:33.505Z,11.94
2022-09-18T06:18:39.949Z,11.96
2022-09-18T06:20:43.467Z,11.99
2022-09-18T06:22:48.052Z,12.00
2022-09-18T06:24:56.075Z,12.01
2022-09-18T06:27:06.349Z,12.01
2022-09-18T06:29:09.449Z,12.04
2022-09-18T06:31:24.158Z,12.05
2022-09-18T06:33:41.444Z,12.07
2022-09-18T06:35:48.392Z,12.03
2022-09-18T06:38:03.856Z,12.02
2022-09-18T06:40:22.116Z,11.96
2022-09-18T06:42:46.163Z,11.95
2022-09-18T06:45:06.584Z,11.92
2022-09-18T06:47:10.144Z,11.92
2022-09-18T06:49:18.020Z,11.94
2022-09-18T06:51:21.757Z,11.97
2022-09-18T06:53:40.053Z,12.01
2022-09-18T06:55:43.063Z,11.99
2022-09-18T06:57:54.447Z,12.01
2022-09-18T06:59:57.576Z,12.06
2022-09-18T07:02:01.156Z,12.09
2022-09-18T07:04:33.662Z,12.02
2022-09-18T07:06:36.713Z,12.04
2022-09-18T07:08:41.872Z,12.10
2022-09-18T07:10:52.101Z,12.12
2022-09-18T07:12:57.238Z,12.12
2022-09-18T07:15:00.248Z,12.16
2022-09-18T07:17:03.510Z,12.18
2022-09-18T07:19:07.382Z,12.21
2022-09-18T07:21:11.806Z,12.18
2022-09-18T07:23:16.488Z,12.16
2022-09-18T07:25:26.815Z,12.19
2022-09-18T07:27:29.965Z,12.24
2022-09-18T07:29:36.079Z,12.20
2022-09-18T07:31:39.186Z,12.20
2022-09-18T07:33:45.027Z,12.23
2022-09-18T07:35:53.213Z,12.27
2022-09-18T07:38:00.044Z,12.26
2022-09-18T07:40:16.860Z,12.27
2022-09-18T07:42:40.605Z,12.24
2022-09-18T07:44:43.943Z,12.25
2022-09-18T07:46:47.267Z,12.30
2022-09-18T07:48:50.658Z,12.33
2022-09-18T07:51:01.157Z,12.38
2022-09-18T07:53:05.580Z,12.38
2022-09-18T07:55:14.236Z,12.33
2022-09-18T07:57:18.044Z,12.33
2022-09-18T07:59:36.703Z,12.34
2022-09-18T08:01:40.664Z,12.35
2022-09-18T08:03:43.860Z,12.34
2022-09-18T08:05:47.074Z,12.37
2022-09-18T08:07:50.296Z,12.39
2022-09-18T08:10:12.679Z,12.45
2022-09-18T08:12:39.365Z,12.46
2022-09-18T08:15:06.095Z,12.46
2022-09-18T08:17:18.537Z,12.49
2022-09-18T08:19:40.453Z,12.53
2022-09-18T08:21:58.857Z,12.54
2022-09-18T08:24:02.143Z,12.46
2022-09-18T08:26:05.898Z,12.45
2022-09-18T08:28:09.248Z,12.43
2022-09-18T08:30:20.984Z,12.39
2022-09-18T08:32:28.471Z,12.39
2022-09-18T08:34:32.034Z,12.40
2022-09-18T08:36:35.624Z,12.39
2022-09-18T08:38:46.296Z,12.41
2022-09-18T08:41:29.946Z,12.41
2022-09-18T08:43:46.098Z,12.42
2022-09-18T08:45:56.068Z,12.45
2022-09-18T08:48:01.293Z,12.51
2022-09-18T08:50:15.820Z,12.55
2022-09-18T08:52:20.850Z,12.59
2022-09-18T08:54:41.067Z,12.66
2022-09-18T08:56:52.283Z,12.68
2022-09-18T08:59:14.122Z,12.72
2022-09-18T09:01:19.632Z,12.80
2022-09-18T09:03:43.703Z,12.85
2022-09-18T09:05:49.744Z,12.88
2022-09-18T09:08:09.993Z,12.93
2022-09-18T09:10:23.942Z,13.02
2022-09-18T09:12:34.582Z,13.14
2022-09-18T09:14:57.022Z,13.22
2022-09-18T09:17:06.659Z,13.28
2022-09-18T09:19:22.249Z,13.29
2022-09-18T09:21:44.881Z,13.28
2022-09-18T09:23:59.036Z,13.30
2022-09-18T09:26:32.167Z,13.31
2022-09-18T09:29:00.474Z,13.32
2022-09-18T09:31:36.517Z,13.39
2022-09-18T09:33:59.795Z,13.43
2022-09-18T09:36:33.346Z,13.50
2022-09-18T09:38:47.151Z,13.60
2022-09-18T09:40:51.708Z,13.62
2022-09-18T09:42:58.450Z,13.63
2022-09-18T09:45:04.913Z,13.64
2022-09-18T09:47:17.792Z,13.60
2022-09-18T09:49:25.334Z,13.59
2022-09-18T09:51:32.178Z,13.53
2022-09-18T09:53:36.330Z,13.49
2022-09-18T09:55:45.750Z,13.55
2022-09-18T09:57:53.902Z,13.60
2022-09-18T10:00:06.438Z,13.65
2022-09-18T10:02:30.306Z,13.68
2022-09-18T10:04:40.265Z,13.71
2022-09-18T10:06:50.828Z,13.74
2022-09-18T10:08:59.610Z,13.79
2022-09-18T10:11:08.720Z,13.87
2022-09-18T10:13:16.006Z,13.81
2022-09-18T10:15:23.105Z,13.79
2022-09-18T10:17:27.379Z,13.79
2022-09-18T10:19:36.954Z,13.85
2022-09-18T10:21:42.124Z,13.98
2022-09-18T10:23:47.954Z,14.10
2022-09-18T10:25:53.514Z,14.26
2022-09-18T10:27:56.688Z,14.45
2022-09-18T10:30:00.249Z,14.58
2022-09-18T10:32:34.121Z,14.87
2022-09-18T10:34:43.702Z,14.93
2022-09-18T10:36:48.440Z,14.99
2022-09-18T10:38:53.992Z,15.04
2022-09-18T10:41:34.682Z,15.15
2022-09-18T10:43:55.945Z,15.35
2022-09-18T10:46:01.553Z,15.37
2022-09-18T10:48:15.756Z,15.47
2022-09-18T10:50:21.582Z,15.57
2022-09-18T10:52:31.843Z,15.63
2022-09-18T10:54:39.671Z,15.68
2022-09-18T10:56:45.927Z,15.65
2022-09-18T10:58:49.052Z,15.70
2022-09-18T11:00:56.403Z,15.77
2022-09-18T11:03:05.680Z,15.85
2022-09-18T11:05:18.074Z,15.94
2022-09-18T11:07:25.983Z,16.01
2022-09-18T11:09:32.334Z,16.01
2022-09-18T11:11:37.988Z,16.00
2022-09-18T11:13:52.782Z,16.06
2022-09-18T11:16:02.259Z,16.12
2022-09-18T11:18:07.479Z,16.07
2022-09-18T11:20:22.422Z,16.06
2022-09-18T11:22:37.695Z,16.15
2022-09-18T11:24:47.488Z,16.30
2022-09-18T11:26:52.701Z,16.39
2022-09-18T11:29:04.661Z,16.48
2022-09-18T11:31:17.136Z,16.55
2022-09-18T11:33:27.262Z,16.55
2022-09-18T11:35:33.291Z,16.55
2022-09-18T11:37:40.547Z,16.61
2022-09-18T11:39:45.875Z,16.62
2022-09-18T11:41:52.589Z,16.68
2022-09-18T11:44:01.693Z,16.77
2022-09-18T11:46:14.823Z,16.79
2022-09-18T11:48:26.140Z,16.79
2022-09-18T11:50:32.631Z,16.76
2022-09-18T11:52:39.780Z,16.65
2022-09-18T11:54:51.584Z,16.58
2022-09-18T11:56:57.832Z,16.53
2022-09-18T11:59:07.654Z,16.43
2022-09-18T12:01:25.311Z,16.37
2022-09-18T12:03:31.434Z,16.42
2022-09-18T12:05:43.713Z,16.39
2022-09-18T12:07:56.367Z,16.32
2022-09-18T12:10:07.489Z,16.25
2022-09-18T12:12:15.830Z,16.08
2022-09-18T12:14:23.869Z,16.00
2022-09-18T12:16:48.068Z,16.00
2022-09-18T12:19:00.948Z,15.97
2022-09-18T12:21:14.556Z,15.91
2022-09-18T12:23:23.210Z,15.88
2022-09-18T12:25:32.066Z,15.84
2022-09-18T12:28:17.322Z,15.82
2022-09-18T12:30:23.052Z,15.83
2022-09-18T12:32:41.830Z,15.78
2022-09-18T12:34:52.344Z,15.74
2022-09-18T12:37:19.417Z,15.75
2022-09-18T12:39:37.325Z,15.73
2022-09-18T12:41:49.187Z,15.75
2022-09-18T12:44:14.354Z,15.58
2022-09-18T12:46:29.067Z,15.55
2022-09-18T12:48:55.142Z,15.49
2022-09-18T12:51:08.120Z,15.45
2022-09-18T12:53:21.634Z,15.40
2022-09-18T12:55:40.254Z,15.43
2022-09-18T12:57:51.426Z,15.36
2022-09-18T12:59:57.999Z,15.30
2022-09-18T13:02:08.934Z,15.31
2022-09-18T13:04:18.843Z,15.34
2022-09-18T13:06:29.334Z,15.35
2022-09-18T13:08:36.822Z,15.36
2022-09-18T13:10:43.830Z,15.39
2022-09-18T13:12:52.847Z,15.41
2022-09-18T13:14:59.032Z,15.42
2022-09-18T13:17:07.654Z,15.45
2022-09-18T13:19:14.902Z,15.51
2022-09-18T13:21:20.274Z,15.54
2022-09-18T13:23:26.403Z,15.58
2022-09-18T13:25:31.776Z,15.55
2022-09-18T13:27:36.144Z,15.53
2022-09-18T13:29:50.142Z,15.51
2022-09-18T13:31:54.432Z,15.53
2022-09-18T13:34:00.709Z,15.53
2022-09-18T13:36:03.990Z,15.59
2022-09-18T13:38:18.518Z,15.57
2022-09-18T13:40:33.263Z,15.52
2022-09-18T13:42:39.512Z,15.50
2022-09-18T13:44:42.794Z,15.45
2022-09-18T13:46:46.125Z,15.45
2022-09-18T13:48:55.866Z,15.48
2022-09-18T13:51:01.125Z,15.48
2022-09-18T13:53:05.296Z,15.54
2022-09-18T13:55:34.567Z,15.53
2022-09-18T13:57:39.165Z,15.52
2022-09-18T13:59:50.435Z,15.49
2022-09-18T14:02:03.500Z,15.48
2022-09-18T14:05:11.298Z,15.44
2022-09-18T14:07:44.617Z,15.38
2022-09-18T14:09:53.177Z,15.32
2022-09-18T14:11:56.234Z,15.27
2022-09-18T14:13:59.519Z,15.26
2022-09-18T14:16:25.014Z,15.20
2022-09-18T14:18:29.946Z,15.17
2022-09-18T14:20:33.440Z,15.15
2022-09-18T14:22:38.311Z,15.10
2022-09-18T14:24:57.636Z,15.10
2022-09-18T14:27:44.690Z,15.12
2022-09-18T14:29:48.862Z,15.14
2022-09-18T14:31:53.150Z,15.12
2022-09-18T14:33:57.321Z,15.09
2022-09-18T14:36:04.544Z,15.08
2022-09-18T14:38:27.659Z,15.07
2022-09-18T14:40:32.344Z,15.01
2022-09-18T14:42:37.723Z,15.07
2022-09-18T14:44:41.064Z,15.07
2022-09-18T14:46:53.339Z,15.06
2022-09-18T14:48:56.692Z,15.08
2022-09-18T14:51:02.286Z,15.07
2022-09-18T14:53:21.653Z,15.12
2022-09-18T14:55:28.557Z,15.15
2022-09-18T14:57:37.207Z,15.16
2022-09-18T14:59:41.137Z,15.13
2022-09-18T15:01:44.540Z,15.14
2022-09-18T15:03:49.493Z,15.16
2022-09-18T15:05:54.796Z,15.19
2022-09-18T15:08:02.021Z,15.23
2022-09-18T15:10:07.168Z,15.27
2022-09-18T15:12:16.193Z,15.29
2022-09-18T15:14:30.981Z,15.31
2022-09-18T15:16:34.287Z,15.33
2022-09-18T15:18:42.042Z,15.29
2022-09-18T15:20:49.708Z,15.29
2022-09-18T15:22:53.313Z,15.27
2022-09-18T15:24:58.635Z,15.25
2022-09-18T15:27:02.913Z,15.25
2022-09-18T15:29:07.089Z,15.25
2022-09-18T15:31:13.116Z,15.23
2022-09-18T15:33:21.153Z,15.19
2022-09-18T15:35:26.314Z,15.20
2022-09-18T15:37:29.714Z,15.17
2022-09-18T15:39:34.083Z,15.15
2022-09-18T15:41:42.394Z,15.16
2022-09-18T15:43:46.446Z,15.16
2022-09-18T15:46:02.614Z,15.13
2022-09-18T15:48:34.439Z,15.08
2022-09-18T15:50:46.111Z,15.05
2022-09-18T15:53:02.984Z,15.00
2022-09-18T15:55:12.435Z,14.97
2022-09-18T15:57:16.600Z,14.94
2022-09-18T15:59:26.368Z,14.94
2022-09-18T16:01:35.231Z,14.93
2022-09-18T16:03:39.984Z,14.92
2022-09-18T16:05:52.917Z,14.94
2022-09-18T16:07:58.627Z,14.96
2022-09-18T16:10:01.669Z,14.94
2022-09-18T16:12:34.469Z,14.95
2022-09-18T16:14:42.451Z,14.94
2022-09-18T16:16:45.726Z,14.95
2022-09-18T16:18:54.962Z,14.95
2022-09-18T16:21:02.771Z,14.96
2022-09-18T16:23:16.330Z,14.95
2022-09-18T16:25:22.368Z,14.94
2022-09-18T16:27:26.493Z,14.94
2022-09-18T16:29:29.525Z,14.94
2022-09-18T16:31:34.344Z,14.92
2022-09-18T16:33:50.316Z,14.93
2022-09-18T16:35:58.276Z,14.93
2022-09-18T16:38:01.350Z,14.95
2022-09-18T16:40:04.863Z,14.98
2022-09-18T16:42:15.865Z,15.00
2022-09-18T16:44:19.730Z,15.01
2022-09-18T16:46:24.255Z,15.04
2022-09-18T16:48:27.378Z,15.03
2022-09-18T16:50:31.774Z,15.02
2022-09-18T16:52:34.746Z,15.04
2022-09-18T16:54:37.899Z,15.04
2022-09-18T16:56:43.711Z,15.02
2022-09-18T16:58:46.757Z,15.01
2022-09-18T17:00:50.075Z,15.00
2022-09-18T17:02:53.939Z,15.00
2022-09-18T17:04:57.080Z,15.01
2022-09-18T17:07:01.932Z,15.00
2022-09-18T17:09:05.243Z,14.99
2022-09-18T17:11:08.281Z,14.97
2022-09-18T17:13:11.422Z,14.94
2022-09-18T17:15:14.450Z,14.94
2022-09-18T17:17:17.563Z,14.95
2022-09-18T17:19:21.074Z,14.89
2022-09-18T17:21:24.467Z,14.87
2022-09-18T17:23:30.159Z,14.87
2022-09-18T17:25:33.208Z,14.88
2022-09-18T17:27:39.720Z,14.87
2022-09-18T17:29:46.079Z,14.89
2022-09-18T17:31:49.292Z,14.89
2022-09-18T17:33:52.888Z,14.86
2022-09-18T17:35:56.016Z,14.86
2022-09-18T17:37:59.368Z,14.84
2022-09-18T17:40:04.237Z,14.83
2022-09-18T17:42:07.428Z,14.80
2022-09-18T17:44:10.492Z,14.80
2022-09-18T17:46:14.311Z,14.81
2022-09-18T17:48:17.522Z,14.80
2022-09-18T17:50:21.574Z,14.81
2022-09-18T17:52:24.703Z,14.79
2022-09-18T17:54:28.187Z,14.79
2022-09-18T17:56:34.177Z,14.80
2022-09-18T17:58:40.169Z,14.80
2022-09-18T18:00:43.282Z,14.79
2022-09-18T18:02:46.422Z,14.71
2022-09-18T18:04:49.693Z,14.63
2022-09-18T18:06:52.669Z,14.59
2022-09-18T18:08:56.403Z,14.55
2022-09-18T18:11:05.142Z,14.56
2022-09-18T18:13:09.699Z,14.53
2022-09-18T18:15:12.810Z,14.52
2022-09-18T18:17:16.342Z,14.52
2022-09-18T18:19:19.477Z,14.54
2022-09-18T18:21:23.146Z,14.55
2022-09-18T18:23:27.272Z,14.50
2022-09-18T18:25:30.300Z,14.46
2022-09-18T18:27:33.675Z,14.43
2022-09-18T18:29:39.752Z,14.41
2022-09-18T18:31:43.505Z,14.37
2022-09-18T18:33:46.742Z,14.35
2022-09-18T18:35:49.745Z,14.30
2022-09-18T18:37:52.756Z,14.27
2022-09-18T18:39:55.815Z,14.22
2022-09-18T18:41:59.047Z,14.19
2022-09-18T18:44:05.546Z,14.16
2022-09-18T18:46:12.765Z,14.15
2022-09-18T18:48:16.002Z,14.13
2022-09-18T18:50:20.108Z,14.12
2022-09-18T18:52:23.185Z,14.10
2022-09-18T18:54:26.299Z,14.09
2022-09-18T18:56:29.986Z,14.07
2022-09-18T18:58:33.085Z,14.07
2022-09-18T19:00:36.544Z,14.02
2022-09-18T19:02:41.186Z,14.00
2022-09-18T19:04:44.691Z,13.97
2022-09-18T19:06:49.462Z,13.89
2022-09-18T19:08:56.849Z,13.82
2022-09-18T19:11:00.969Z,13.81
2022-09-18T19:13:04.727Z,13.77
2022-09-18T19:15:08.498Z,13.73
2022-09-18T19:17:13.915Z,13.66
2022-09-18T19:19:19.968Z,13.64
2022-09-18T19:21:23.685Z,13.64
2022-09-18T19:23:26.753Z,13.64
2022-09-18T19:25:30.233Z,13.62
2022-09-18T19:27:33.332Z,13.59
2022-09-18T19:29:39.121Z,13.59
2022-09-18T19:31:43.663Z,13.57
2022-09-18T19:33:48.872Z,13.56
2022-09-18T19:35:53.262Z,13.53
2022-09-18T19:37:56.309Z,13.51
2022-09-18T19:39:59.319Z,13.48
2022-09-18T19:42:06.175Z,13.48
2022-09-18T19:44:15.737Z,13.47
2022-09-18T19:46:23.854Z,13.45
2022-09-18T19:48:28.149Z,13.43
2022-09-18T19:50:33.167Z,13.43
2022-09-18T19:52:37.590Z,13.41
2022-09-18T19:54:40.580Z,13.40
2022-09-18T19:56:47.589Z,13.37
2022-09-18T19:58:51.142Z,13.34
2022-09-18T20:00:54.192Z,13.32
2022-09-18T20:02:58.819Z,13.32
2022-09-18T20:05:02.072Z,13.31
2022-09-18T20:07:05.142Z,13.33
2022-09-18T20:09:10.049Z,13.31
2022-09-18T20:11:12.984Z,13.24
2022-09-18T20:13:16.082Z,13.22
2022-09-18T20:15:19.500Z,13.21
2022-09-18T20:17:22.616Z,13.20
2022-09-18T20:19:26.296Z,13.19
2022-09-18T20:21:29.698Z,13.15
2022-09-18T20:23:32.879Z,13.13
2022-09-18T20:25:37.285Z,13.14
2022-09-18T20:27:42.732Z,13.13
2022-09-18T20:29:45.754Z,13.10
2022-09-18T20:31:50.090Z,13.03
2022-09-18T20:33:56.691Z,13.02
2022-09-18T20:36:00.277Z,12.97
2022-09-18T20:38:05.210Z,12.93
2022-09-18T20:40:10.229Z,12.91
2022-09-18T20:42:14.698Z,12.79
2022-09-18T20:44:18.007Z,12.78
2022-09-18T20:46:21.242Z,12.78
2022-09-18T20:48:27.248Z,12.77
2022-09-18T20:50:30.342Z,12.72
2022-09-18T20:52:36.239Z,12.72
2022-09-18T20:54:41.244Z,12.71
2022-09-18T20:56:44.647Z,12.70
2022-09-18T20:58:50.077Z,12.72
2022-09-18T21:00:53.439Z,12.72
2022-09-18T21:02:56.456Z,12.70
2022-09-18T21:04:59.470Z,12.69
2022-09-18T21:07:02.505Z,12.66
2022-09-18T21:09:07.695Z,12.61
2022-09-18T21:11:11.102Z,12.59
2022-09-18T21:13:15.726Z,12.61
2022-09-18T21:15:20.319Z,12.63
2022-09-18T21:17:23.701Z,12.64
2022-09-18T21:19:28.775Z,12.67
2022-09-18T21:21:35.004Z,12.68
2022-09-18T21:23:54.177Z,12.70
2022-09-18T21:25:57.785Z,12.71
2022-09-18T21:28:03.071Z,12.72
2022-09-18T21:30:08.206Z,12.74
2022-09-18T21:32:12.558Z,12.74
2022-09-18T21:34:19.294Z,12.74
2022-09-18T21:36:22.684Z,12.76
2022-09-18T21:38:25.912Z,12.74
2022-09-18T21:40:29.359Z,12.73
2022-09-18T21:42:32.459Z,12.75
2022-09-18T21:44:37.631Z,12.76
2022-09-18T21:46:40.675Z,12.73
2022-09-18T21:48:45.078Z,12.76
2022-09-18T21:50:48.569Z,12.76
2022-09-18T21:52:51.654Z,12.78
2022-09-18T21:54:55.609Z,12.80
2022-09-18T21:56:58.752Z,12.82
2022-09-18T21:59:01.786Z,12.82
2022-09-18T22:01:09.511Z,12.78
2022-09-18T22:03:13.202Z,12.76
2022-09-18T22:05:18.347Z,12.77
2022-09-18T22:07:21.336Z,12.73
2022-09-18T22:09:26.225Z,12.70
2022-09-18T22:11:30.684Z,12.68
2022-09-18T22:13:33.779Z,12.69
2022-09-18T22:15:36.792Z,12.71
2022-09-18T22:17:39.946Z,12.69
2022-09-18T22:19:42.960Z,12.70
2022-09-18T22:21:49.523Z,12.70
2022-09-18T22:23:53.953Z,12.67
2022-09-18T22:26:00.119Z,12.65
2022-09-18T22:28:04.992Z,12.60
2022-09-18T22:30:09.075Z,12.57
2022-09-18T22:32:12.097Z,12.57
2022-09-18T22:34:17.068Z,12.59
2022-09-18T22:36:20.046Z,12.57
2022-09-18T22:38:24.576Z,12.54
2022-09-18T22:40:27.602Z,12.58
2022-09-18T22:42:30.836Z,12.59
2022-09-18T22:44:33.799Z,12.60
2022-09-18T22:46:38.084Z,12.61
2022-09-18T22:48:41.465Z,12.55
2022-09-18T22:50:44.536Z,12.52
2022-09-18T22:52:47.652Z,12.41
2022-09-18T22:54:51.922Z,12.36
2022-09-18T22:56:56.166Z,12.30
2022-09-18T22:59:02.080Z,12.16
2022-09-18T23:01:09.411Z,12.07
2022-09-18T23:03:12.661Z,12.03
2022-09-18T23:05:15.806Z,11.95
2022-09-18T23:07:18.907Z,11.83
2022-09-18T23:09:22.011Z,11.78
2022-09-18T23:11:28.005Z,11.76
2022-09-18T23:13:32.031Z,11.75
2022-09-18T23:15:37.314Z,11.75
2022-09-18T23:17:40.858Z,11.76
2022-09-18T23:19:43.793Z,11.76
2022-09-18T23:21:46.805Z,11.77
2022-09-18T23:23:50.796Z,11.77
2022-09-18T23:25:53.726Z,11.76
2022-09-18T23:27:58.026Z,11.76
2022-09-18T23:30:01.104Z,11.77
2022-09-18T23:32:04.283Z,11.76
2022-09-18T23:34:08.618Z,11.75
2022-09-18T23:36:13.717Z,11.75
2022-09-18T23:38:16.814Z,11.76
2022-09-18T23:40:20.509Z,11.75
2022-09-18T23:42:24.727Z,11.76
2022-09-18T23:44:30.945Z,11.75
2022-09-18T23:46:34.273Z,11.75
2022-09-18T23:48:37.292Z,11.74
2022-09-18T23:50:42.230Z,11.74
2022-09-18T23:52:45.680Z,11.72
2022-09-18T23:54:48.771Z,11.74
2022-09-18T23:56:52.374Z,11.72
2022-09-18T23:58:55.840Z,11.71
